Time;durP1;ratioP1;P1;durP2;ratioP2;P2;SDS_P1;SDS_P2;PMS_P1;PMS_P2;Temp;Humidity;BMP_temperature;BMP_pressure;BME280_temperature;BME280_humidity;BME280_pressure;Samples;Min_cycle;Max_cycle;Signal;HPM_P1;HPM_P2
2023/05/01 00:01:48;;;;;;;9.32;4.72;;;;;;;;;;6156322;23;20019;-94
2023/05/01 00:04:33;;;;;;;9.98;5.22;;;;;;;;;;6114441;23;20064;-96
2023/05/01 00:07:18;;;;;;;11.10;5.95;;;;;;;;;;6155831;23;20036;-95
2023/05/01 00:10:02;;;;;;;10.70;4.60;;;;;;;;;;6157165;23;20060;-93
2023/05/01 00:12:50;;;;;;;7.55;4.45;;;;;;;;;;6134546;23;20460;-93
2023/05/01 00:15:35;;;;;;;9.75;5.35;;;;;;;;;;6113979;23;20064;-92
2023/05/01 00:18:19;;;;;;;9.23;4.78;;;;;;;;;;6133599;23;20072;-94
2023/05/01 00:21:07;;;;;;;7.15;4.07;;;;;;;;;;6156104;23;20020;-94
2023/05/01 00:23:51;;;;;;;10.07;5.03;;;;;;;;;;6134241;23;20112;-94
2023/05/01 00:26:36;;;;;;;9.88;5.00;;;;;;;;;;6134207;23;20100;-94
2023/05/01 00:29:20;;;;;;;8.07;5.00;;;;;;;;;;6112963;23;20507;-93
2023/05/01 00:32:05;;;;;;;13.27;5.45;;;;;;;;;;6113684;23;20336;-93
2023/05/01 00:34:50;;;;;;;8.85;4.43;;;;;;;;;;6156217;23;20064;-94
2023/05/01 00:37:35;;;;;;;9.55;4.90;;;;;;;;;;6134134;23;20020;-92
2023/05/01 00:40:19;;;;;;;9.52;4.78;;;;;;;;;;6155563;23;20144;-93
2023/05/01 00:43:04;;;;;;;11.35;5.38;;;;;;;;;;6134002;23;20016;-94
2023/05/01 00:45:49;;;;;;;12.85;5.25;;;;;;;;;;6134291;23;20016;-92
2023/05/01 00:48:34;;;;;;;9.85;4.68;;;;;;;;;;6155712;23;20033;-94
2023/05/01 00:51:19;;;;;;;11.30;5.22;;;;;;;;;;6133512;23;20021;-92
2023/05/01 00:54:05;;;;;;;8.63;4.75;;;;;;;;;;6134256;23;20020;-94
2023/05/01 00:56:50;;;;;;;9.35;5.50;;;;;;;;;;6160100;23;20024;-92
2023/05/01 00:59:35;;;;;;;9.30;4.97;;;;;;;;;;6155953;23;20057;-95
2023/05/01 01:02:20;;;;;;;8.50;4.57;;;;;;;;;;6133339;23;20059;-94
2023/05/01 01:05:05;;;;;;;11.50;4.65;;;;;;;;;;6133664;23;20377;-93
2023/05/01 01:07:57;;;;;;;10.27;4.80;;;;;;;;;;6155686;23;20460;-92
2023/05/01 01:10:53;;;;;;;11.63;5.53;;;;;;;;;;6133791;23;20030;-93
2023/05/01 01:13:55;;;;;;;11.40;4.78;;;;;;;;;;6133241;23;20443;-92
2023/05/01 01:16:54;;;;;;;9.05;4.85;;;;;;;;;;6133559;23;20074;-94
2023/05/01 01:19:41;;;;;;;7.75;4.13;;;;;;;;;;6155434;23;20017;-93
2023/05/01 01:22:27;;;;;;;12.77;5.18;;;;;;;;;;6154680;23;20016;-94
2023/05/01 01:25:33;;;;;;;10.30;4.75;;;;;;;;;;6133342;23;20078;-93
2023/05/01 01:28:21;;;;;;;12.52;4.97;;;;;;;;;;6154787;23;20344;-92
2023/05/01 01:31:21;;;;;;;10.85;4.63;;;;;;;;;;6133365;23;20020;-94
2023/05/01 01:34:13;;;;;;;11.68;5.68;;;;;;;;;;6155498;23;20016;-92
2023/05/01 01:36:58;;;;;;;12.52;5.13;;;;;;;;;;6133353;23;20017;-93
2023/05/01 01:39:43;;;;;;;11.40;4.60;;;;;;;;;;6155766;23;20016;-94
2023/05/01 01:42:33;;;;;;;10.18;5.10;;;;;;;;;;6133098;23;20016;-94
2023/05/01 01:45:23;;;;;;;10.65;5.13;;;;;;;;;;6133231;23;20012;-91
2023/05/01 01:48:10;;;;;;;14.45;4.78;;;;;;;;;;6133288;23;20016;-92
2023/05/01 01:50:57;;;;;;;11.10;5.43;;;;;;;;;;6155217;23;20107;-92
2023/05/01 01:53:45;;;;;;;12.65;5.07;;;;;;;;;;6154784;23;20032;-93
2023/05/01 01:56:31;;;;;;;10.57;5.18;;;;;;;;;;6154759;23;20032;-94
2023/05/01 01:59:16;;;;;;;14.63;5.88;;;;;;;;;;6155337;23;20041;-92
2023/05/01 02:02:02;;;;;;;11.85;5.15;;;;;;;;;;6132854;23;20037;-94
2023/05/01 02:04:50;;;;;;;8.70;5.20;;;;;;;;;;6133267;23;20046;-93
2023/05/01 02:07:37;;;;;;;9.13;4.82;;;;;;;;;;6116312;23;20036;-94
2023/05/01 02:10:22;;;;;;;10.90;5.00;;;;;;;;;;6136856;23;20097;-89
2023/05/01 02:13:08;;;;;;;12.45;5.45;;;;;;;;;;6161631;23;20075;-96
2023/05/01 02:15:53;;;;;;;10.25;5.47;;;;;;;;;;6140207;23;20016;-94
2023/05/01 02:18:39;;;;;;;9.52;5.13;;;;;;;;;;6165069;23;20020;-93
2023/05/01 02:21:25;;;;;;;10.77;5.20;;;7.70;99.90;;;;;;6151372;23;20072;-87
2023/05/01 02:26:49;;;;;;;10.05;5.47;;;;;;;;;;6127622;23;20054;-91
2023/05/01 02:32:23;;;;;;;9.20;5.70;;;;;;;;;;6102206;23;20403;-89
2023/05/01 02:35:09;;;;;;;13.30;5.70;;;;;;;;;;6162716;23;20107;-94
2023/05/01 02:37:53;;;;;;;10.80;5.53;;;;;;;;;;6184819;23;20023;-94
2023/05/01 02:40:39;;;;;;;10.70;5.93;;;;;;;;;;6183762;23;20099;-93
2023/05/01 02:43:25;;;;;;;8.65;4.97;;;;;;;;;;6162123;23;20044;-89
2023/05/01 02:46:10;;;;;;;11.48;5.45;;;;;;;;;;6184373;23;20015;-93
2023/05/01 02:48:56;;;;;;;11.88;5.90;;;;;;;;;;6184446;23;20454;-95
2023/05/01 02:51:42;;;;;;;9.43;5.65;;;;;;;;;;6183939;23;20063;-93
2023/05/01 02:54:26;;;;;;;10.15;5.43;;;;;;;;;;6183648;23;20024;-86
2023/05/01 02:57:11;;;;;;;9.68;5.22;;;;;;;;;;6184397;23;20360;-86
2023/05/01 02:59:56;;;;;;;8.90;5.22;;;;;;;;;;6184478;23;20059;-86
2023/05/01 03:02:41;;;;;;;11.60;5.88;;;;;;;;;;6161711;23;20020;-86
2023/05/01 03:05:25;;;;;;;11.85;5.28;;;;;;;;;;6184473;23;20020;-86
2023/05/01 03:08:10;;;;;;;11.95;6.22;;;;;;;;;;6184424;23;20068;-89
2023/05/01 03:10:55;;;;;;;9.27;4.85;;;;;;;;;;6184537;23;20063;-89
2023/05/01 03:13:39;;;;;;;9.40;5.68;;;;;;;;;;6183982;23;20463;-89
2023/05/01 03:16:24;;;;;;;17.00;5.75;;;;;;;;;;6186553;23;20019;-89
2023/05/01 03:19:09;;;;;;;9.68;5.70;;;;;;;;;;6186529;23;20092;-90
2023/05/01 03:21:53;;;;;;;8.70;5.15;;;;;;;;;;6186183;23;20024;-89
2023/05/01 03:24:38;;;;;;;10.32;4.68;;;;;;;;;;6186077;23;20344;-88
2023/05/01 03:27:22;;;;;;;9.05;5.97;;;;;;;;;;6186525;23;20024;-89
2023/05/01 03:30:08;;;;;;;14.15;5.88;;;;;;;;;;6186379;23;20012;-89
2023/05/01 03:32:54;;;;;;;14.48;5.53;;;;;;;;;;6186046;23;20099;-89
2023/05/01 03:35:38;;;;;;;14.13;6.53;;;;;;;;;;6185928;23;20135;-90
2023/05/01 03:38:23;;;;;;;10.63;5.78;;;;;;;;;;6164238;23;20136;-89
2023/05/01 03:41:08;;;;;;;10.00;6.25;;;;;;;;;;6186363;23;20035;-89
2023/05/01 03:43:53;;;;;;;9.55;5.57;;;;;;;;;;6185788;23;20620;-89
2023/05/01 03:46:37;;;;;;;11.88;7.00;;;;;;;;;;6185856;23;20016;-89
2023/05/01 03:49:22;;;;;;;13.45;6.18;;;;;;;;;;6186218;23;20024;-89
2023/05/01 03:52:07;;;;;;;10.48;5.50;;;;;;;;;;6163873;23;20083;-88
2023/05/01 03:54:52;;;;;;;13.25;5.70;;;;;;;;;;6185742;23;20015;-88
2023/05/01 03:57:37;;;;;;;14.38;6.38;;;;;;;;;;6185595;23;20016;-88
2023/05/01 04:00:21;;;;;;;10.88;5.55;;;;;;;;;;6163838;23;20083;-89
2023/05/01 04:03:06;;;;;;;17.10;6.32;;;;;;;;;;6186121;23;20068;-89
2023/05/01 04:05:50;;;;;;;10.73;5.35;;;;;;;;;;6185709;23;20012;-89
2023/05/01 04:08:35;;;;;;;11.65;5.88;;;;;;;;;;6163468;23;20340;-88
2023/05/01 04:11:20;;;;;;;13.95;6.60;;;;;;;;;;6186071;23;20092;-88
2023/05/01 04:14:05;;;;;;;13.05;6.00;;;;;;;;;;6186051;23;20016;-88
2023/05/01 04:16:50;;;;;;;12.13;5.40;;;;;;;;;;6163392;23;20016;-89
2023/05/01 04:19:34;;;;;;;11.20;5.68;;;;;;;;;;6185907;23;20099;-89
2023/05/01 04:22:19;;;;;;;9.43;5.38;;;;;;;;;;6186036;23;20383;-88
2023/05/01 04:25:04;;;;;;;17.35;5.80;;;;;;;;;;6185930;23;20140;-89
2023/05/01 04:27:49;;;;;;;13.23;5.75;;;;;;;;;;6163479;23;20066;-89
2023/05/01 04:30:34;;;;;;;12.65;6.30;;;;;;;;;;6163610;23;20336;-89
2023/05/01 04:33:19;;;;;;;14.45;6.03;;;;;;;;;;6189159;23;20056;-88
2023/05/01 04:36:03;;;;;;;12.93;5.95;;;;;;;;;;6185578;23;20052;-89
2023/05/01 04:38:48;;;;;;;12.40;6.68;;;;;;;;;;6185294;23;20020;-89
2023/05/01 04:41:32;;;;;;;11.98;5.95;;;;;;;;;;6185825;23;20016;-89
2023/05/01 04:44:17;;;;;;;11.13;6.68;;;;;;;;;;6163500;23;20444;-89
2023/05/01 04:47:02;;;;;;;14.93;6.40;;;;;;;;;;6163186;23;20076;-88
2023/05/01 04:49:47;;;;;;;15.27;5.93;;;;;;;;;;6185510;23;20089;-88
2023/05/01 04:52:31;;;;;;;11.25;6.53;;;;;;;;;;6184779;23;20463;-88
2023/05/01 04:55:16;;;;;;;12.55;6.30;;;;;;;;;;6184229;23;20044;-88
2023/05/01 04:58:03;;;;;;;11.93;6.03;;;;;;;;;;6184934;23;20015;-88
2023/05/01 05:00:48;;;;;;;14.25;5.68;;;;;;;;;;6162326;23;20075;-88
2023/05/01 05:03:32;;;;;;;12.75;6.57;;;;;;;;;;6185406;23;20052;-88
2023/05/01 05:06:17;;;;;;;15.13;6.80;;;;;;;;;;6163140;23;20020;-89
2023/05/01 05:09:01;;;;;;;15.18;6.38;;;;;;;;;;6162749;23;20526;-89
2023/05/01 05:11:46;;;;;;;13.38;6.60;;;;;;;;;;6185147;23;20016;-88
2023/05/01 05:14:30;;;;;;;12.82;6.10;;;;;;;;;;6185483;23;20036;-95
2023/05/01 05:17:15;;;;;;;11.88;5.78;;;;;;;;;;6185370;23;20348;-88
2023/05/01 05:20:00;;;;;;;13.02;6.40;;;;;;;;;;6184881;23;20016;-88
2023/05/01 05:22:45;;;;;;;13.43;5.97;;;;;;;;;;6163130;23;20016;-88
2023/05/01 05:25:29;;;;;;;12.77;6.68;;;;;;;;;;6185367;23;20020;-90
2023/05/01 05:28:14;;;;;;;11.93;6.03;;;;;;;;;;6162985;23;20501;-88
2023/05/01 05:30:58;;;;;;;10.57;6.28;;;;;;;;;;6182674;23;20344;-89
2023/05/01 05:33:43;;;;;;;15.82;6.07;;;;;;;;;;6162599;23;20130;-93
2023/05/01 05:36:28;;;;;;;9.98;5.95;;;;;;;;;;6142202;23;20028;-92
2023/05/01 05:39:13;;;;;;;13.35;6.53;;;;;;;;;;6163183;23;20147;-93
2023/05/01 05:41:58;;;;;;;11.02;6.57;;;;;;;;;;6184801;23;20093;-90
2023/05/01 05:44:42;;;;;;;10.98;5.82;;;;;;;;;;6162759;23;20020;-89
2023/05/01 05:47:27;;;;;;;10.48;6.53;;;;;;;;;;6162789;23;20051;-89
2023/05/01 05:50:11;;;;;;;15.85;7.13;;;;;;;;;;6184468;23;20016;-89
2023/05/01 05:52:56;;;;;;;9.55;6.20;;;;;;;;;;6184167;23;20067;-88
2023/05/01 05:55:42;;;;;;;11.65;5.82;;;;;;;;;;6184559;23;20497;-89
2023/05/01 05:58:27;;;;;;;10.95;5.90;;;;;;;;;;6184842;23;20063;-90
2023/05/01 06:01:11;;;;;;;10.30;5.45;;;;;;;;;;6184326;23;20379;-89
2023/05/01 06:03:56;;;;;;;14.50;7.25;;;;;;;;;;6184536;23;20016;-88
2023/05/01 06:06:40;;;;;;;11.88;6.05;;;;;;;;;;6185069;23;20101;-89
2023/05/01 06:09:25;;;;;;;16.75;7.80;;;;;;;;;;6186589;23;20040;-88
2023/05/01 06:12:09;;;;;;;13.02;6.45;;;;;;;;;;6185015;23;20071;-88
2023/05/01 06:14:54;;;;;;;12.48;6.43;;;;;;;;;;6184311;23;20055;-89
2023/05/01 06:17:39;;;;;;;12.02;5.57;;;;;;;;;;6184705;23;20404;-88
2023/05/01 06:20:24;;;;;;;10.40;6.05;;;;;;;;;;6184689;23;20055;-89
2023/05/01 06:23:09;;;;;;;11.38;5.55;;;;;;;;;;6184192;23;20016;-89
2023/05/01 06:25:54;;;;;;;12.30;5.60;;;;;;;;;;6184386;23;20020;-88
2023/05/01 06:28:38;;;;;;;9.85;5.38;;;;;;;;;;6184466;23;20093;-89
2023/05/01 06:31:23;;;;;;;16.90;5.97;;;;;;;;;;6184645;23;20016;-89
2023/05/01 06:34:07;;;;;;;12.63;6.32;;;;;;;;;;6161730;23;20027;-88
2023/05/01 06:36:52;;;;;;;10.75;5.30;;;;;;;;;;6162319;23;20015;-88
2023/05/01 06:39:36;;;;;;;10.13;5.25;;;;;;;;;;6184739;23;20340;-88
2023/05/01 06:42:21;;;;;;;9.77;5.90;;;;;;;;;;6184176;23;20105;-86
2023/05/01 06:45:07;;;;;;;11.60;5.90;;;;;;;;;;6183956;23;20035;-88
2023/05/01 06:47:51;;;;;;;11.48;5.72;;;;;;;;;;6184528;23;20068;-89
2023/05/01 06:50:35;;;;;;;11.48;5.82;;;;;;;;;;6184378;23;20020;-89
2023/05/01 06:53:20;;;;;;;8.60;5.07;;;;;;;;;;6184130;23;20043;-88
2023/05/01 06:56:04;;;;;;;10.50;5.10;;;;;;;;;;6161831;23;20011;-89
2023/05/01 06:58:49;;;;;;;9.55;4.82;;;;;;;;;;6162292;23;20028;-89
2023/05/01 07:01:34;;;;;;;7.45;5.03;;;;;;;;;;6184467;23;20019;-89
2023/05/01 07:04:18;;;;;;;12.98;5.13;;;;;;;;;;6161762;23;20020;-89
2023/05/01 07:07:03;;;;;;;10.32;5.93;;;;;;;;;;6184063;23;20118;-89
2023/05/01 07:09:47;;;;;;;8.07;5.00;;;;;;;;;;6161939;23;20012;-89
2023/05/01 07:12:32;;;;;;;9.48;5.22;;;;;;;;;;6162162;23;20457;-90
2023/05/01 07:15:17;;;;;;;9.32;5.47;;;;;;;;;;6161712;23;20016;-89
2023/05/01 07:18:04;;;;;;;9.18;5.03;;;;;;;;;;6161520;23;20471;-89
2023/05/01 07:20:49;;;;;;;9.75;4.82;;;;;;;;;;6162861;23;20024;-89
2023/05/01 07:23:34;;;;;;;12.95;5.20;;;;;;;;;;6162075;23;20016;-89
2023/05/01 07:26:19;;;;;;;11.23;4.93;;;;;;;;;;6183637;23;20016;-88
2023/05/01 07:29:03;;;;;;;11.48;5.22;;;;;;;;;;6183860;23;20028;-88
2023/05/01 07:31:48;;;;;;;10.98;5.07;;;;;;;;;;6161802;23;20337;-88
2023/05/01 07:34:33;;;;;;;9.48;6.05;;;;;;;;;;6184363;23;20079;-89
2023/05/01 07:37:17;;;;;;;9.15;5.10;;;;;;;;;;6183801;23;20384;-88
2023/05/01 07:40:02;;;;;;;8.35;4.97;;;;;;;;;;6183979;23;20020;-88
2023/05/01 07:42:47;;;;;;;12.88;4.55;;;;;;;;;;6184363;23;20056;-89
2023/05/01 07:45:31;;;;;;;8.38;4.53;;;;;;;;;;6184248;23;20486;-88
2023/05/01 07:48:16;;;;;;;12.88;5.70;;;;;;;;;;6183814;23;20348;-89
2023/05/01 07:51:04;;;;;;;10.90;5.00;;;;;;;;;;6162116;23;20055;-87
2023/05/01 07:53:48;;;;;;;10.63;5.25;;;;;;;;;;6184255;23;20478;-87
2023/05/01 07:56:33;;;;;;;9.05;4.18;;;;;;;;;;6184308;23;20012;-87
2023/05/01 07:59:18;;;;;;;8.40;4.07;;;;;;;;;;6183715;23;20039;-87
2023/05/01 08:02:02;;;;;;;11.73;4.50;;;;;;;;;;6185978;23;20024;-88
2023/05/01 08:04:47;;;;;;;9.25;4.10;;;;;;;;;;6186005;23;20355;-87
2023/05/01 08:07:31;;;;;;;9.93;4.63;;;;;;;;;;6186263;23;20036;-86
2023/05/01 08:10:16;;;;;;;8.43;4.25;;;;;;;;;;6163212;23;20020;-88
2023/05/01 08:13:00;;;;;;;8.68;4.20;;;;;;;;;;6185855;23;20064;-87
2023/05/01 08:15:45;;;;;;;9.27;4.35;;;;;;;;;;6186068;23;20136;-87
2023/05/01 08:18:30;;;;;;;10.50;4.40;;;;;;;;;;6185374;23;20016;-87
2023/05/01 08:21:15;;;;;;;9.48;4.13;;;;;;;;;;6185348;23;20021;-87
2023/05/01 08:23:59;;;;;;;11.52;3.92;;;;;;;;;;6185983;23;20386;-86
2023/05/01 08:26:44;;;;;;;7.35;4.03;;;;;;;;;;6185862;23;20136;-86
2023/05/01 08:29:29;;;;;;;11.00;5.05;;;;;;;;;;6163159;23;20020;-87
2023/05/01 08:32:14;;;;;;;11.63;5.25;;;;;;;;;;6162378;23;20532;-87
2023/05/01 08:34:59;;;;;;;9.38;4.30;;;;;;;;;;6185791;23;20096;-86
2023/05/01 08:37:43;;;;;;;8.23;3.83;;;;;;;;;;6185606;23;20016;-87
2023/05/01 08:40:31;;;;;;;9.45;3.45;;;;;;;;;;6163191;23;20418;-87
2023/05/01 08:43:15;;;;;;;11.48;4.35;;;;;;;;;;6185213;23;20059;-86
2023/05/01 08:46:00;;;;;;;9.90;4.78;;;;;;;;;;6163372;23;20017;-87
2023/05/01 08:48:45;;;;;;;7.93;3.80;;;;;;;;;;6185673;23;20044;-87
2023/05/01 08:51:30;;;;;;;8.20;3.33;;;;;;;;;;6185266;23;20100;-87
2023/05/01 08:54:16;;;;;;;9.07;3.83;;;;;;;;;;6185167;23;20020;-86
2023/05/01 08:57:04;;;;;;;6.28;3.20;;;;;;;;;;6185612;23;20028;-88
2023/05/01 08:59:50;;;;;;;10.05;3.70;;;;;;;;;;6185480;23;20055;-86
2023/05/01 09:02:35;;;;;;;9.70;3.28;;;;;;;;;;6162665;23;20008;-87
2023/05/01 09:05:21;;;;;;;8.57;3.28;;;;;;;;;;6141947;23;20015;-87
2023/05/01 09:08:06;;;;;;;9.20;3.60;;;;;;;;;;6185484;23;20048;-87
2023/05/01 09:10:51;;;;;;;7.30;3.47;;;;;;;;;;6185459;23;20344;-87
2023/05/01 09:13:36;;;;;;;9.60;3.60;;;;;;;;;;6185479;23;20023;-86
2023/05/01 09:16:21;;;;;;;9.23;2.90;;;;;;;;;;6184809;23;20040;-87
2023/05/01 09:19:06;;;;;;;6.53;2.90;;;;;;;;;;6185219;23;20024;-87
2023/05/01 09:21:50;;;;;;;12.45;3.38;;;;;;;;;;6163078;23;20024;-87
2023/05/01 09:24:35;;;;;;;7.32;3.15;;;;;;;;;;6162760;23;20364;-86
2023/05/01 09:27:19;;;;;;;9.13;2.58;;;;;;;;;;6162521;23;20091;-86
2023/05/01 09:30:06;;;;;;;6.18;2.67;;;;;;;;;;6185010;23;20348;-88
2023/05/01 09:33:03;;;;;;;8.25;2.75;;;;;;;;;;6185239;23;20024;-87
2023/05/01 09:35:52;;;;;;;7.05;2.50;;;;;;;;;;6185324;23;20384;-86
2023/05/01 09:38:42;;;;;;;7.07;2.60;;;;;;;;;;6188545;23;20019;-88
2023/05/01 09:41:27;;;;;;;7.28;2.10;;;;;;;;;;6184662;23;20374;-86
2023/05/01 09:44:20;;;;;;;5.18;2.30;;;;;;;;;;6191157;23;20012;-86
2023/05/01 09:47:07;;;;;;;6.93;2.22;;;;;;;;;;6184977;23;20062;-86
2023/05/01 09:49:52;;;;;;;5.03;2.40;;;;;;;;;;6185194;23;20048;-86
2023/05/01 09:52:37;;;;;;;8.95;2.67;;;;;;;;;;6162774;23;20344;-87
2023/05/01 09:55:22;;;;;;;6.53;2.25;;;;;;;;;;6184606;23;20024;-86
2023/05/01 09:58:06;;;;;;;6.18;2.17;;;;;;;;;;6185041;23;20016;-86
2023/05/01 10:00:51;;;;;;;7.97;2.97;;;;;;;;;;6184912;23;20071;-86
2023/05/01 10:03:36;;;;;;;4.22;1.90;;;;;;;;;;6184399;23;20015;-86
2023/05/01 10:06:28;;;;;;;3.47;1.80;;;;;;;;;;6162442;23;20348;-86
2023/05/01 10:09:26;;;;;;;8.52;2.40;;;;;;;;;;6162819;23;20332;-85
2023/05/01 10:12:10;;;;;;;6.05;2.42;;;;;;;;;;6185498;23;20016;-87
2023/05/01 10:14:59;;;;;;;5.25;2.30;;;;;;;;;;6185651;23;20142;-87
2023/05/01 10:17:44;;;;;;;5.07;1.85;;;;;;;;;;6186404;23;20016;-87
2023/05/01 10:20:31;;;;;;;5.28;2.33;;;;;;;;;;6190427;23;20016;-85
2023/05/01 10:23:18;;;;;;;4.85;2.30;;;;;;;;;;6190585;23;20039;-86
2023/05/01 10:26:04;;;;;;;4.28;2.67;;;;;;;;;;6167846;23;20020;-86
2023/05/01 10:28:49;;;;;;;4.20;2.40;;;;;;;;;;6149640;23;20020;-86
2023/05/01 10:31:34;;;;;;;6.93;2.80;;;;;;;;;;6188209;23;20040;-87
2023/05/01 10:34:21;;;;;;;7.53;2.60;;;;;;;;;;6168921;23;20040;-87
2023/05/01 10:37:11;;;;;;;5.82;2.25;;;;;;;;;;6170052;23;20028;-86
2023/05/01 10:39:57;;;;;;;5.20;1.90;;;;;;;;;;6191724;23;20016;-87
2023/05/01 10:43:15;;;;;;;5.78;2.22;;;20.50;78.30;;;;;;6186733;23;20019;-86
2023/05/01 10:46:09;;;;;;;7.70;2.50;;;;;;;;;;6185045;23;20137;-87
2023/05/01 10:48:53;;;;;;;;;;;20.50;77.00;;;;;;6185046;23;20020;-87
2023/05/01 10:51:57;;;;;;;6.28;2.20;;;;;;;;;;6184139;23;20246;-87
2023/05/01 10:54:42;;;;;;;4.80;2.28;;;;;;;;;;6184374;23;20343;-87
2023/05/01 10:57:41;;;;;;;4.50;2.25;;;;;;;;;;6184213;23;20121;-86
2023/05/01 11:00:26;;;;;;;4.60;1.60;;;;;;;;;;6184452;23;20348;-87
2023/05/01 11:03:23;;;;;;;3.88;1.55;;;;;;;;;;6162046;23;20379;-87
2023/05/01 11:06:08;;;;;;;5.78;1.88;;;;;;;;;;6184278;23;20028;-87
2023/05/01 11:08:52;;;;;;;4.10;1.70;;;;;;;;;;6184027;23;20019;-86
2023/05/01 11:11:37;;;;;;;6.00;1.73;;;;;;;;;;6161984;23;20448;-86
2023/05/01 11:14:22;;;;;;;4.63;1.65;;;;;;;;;;6184260;23;20393;-86
2023/05/01 11:17:06;;;;;;;3.28;1.40;;;;;;;;;;6184455;23;20019;-86
2023/05/01 11:19:51;;;;;;;4.45;1.70;;;;;;;;;;6184006;23;20547;-86
2023/05/01 11:22:36;;;;;;;4.78;1.65;;;;;;;;;;6183963;23;20031;-86
2023/05/01 11:25:22;;;;;;;5.97;1.52;;;;;;;;;;6183889;23;20016;-86
2023/05/01 11:28:08;;;;;;;3.10;1.60;;;;;;;;;;6162248;23;20056;-90
2023/05/01 11:30:53;;;;;;;5.45;1.80;;;;;;;;;;6183973;23;20079;-86
2023/05/01 11:33:37;;;;;;;5.30;1.80;;;;;;;;;;6183606;23;20047;-86
2023/05/01 11:36:22;;;;;;;5.40;1.73;;;;;;;;;;6163448;23;20016;-86
2023/05/01 11:39:14;;;;;;;4.00;1.83;;;;;;;;;;6164004;23;20044;-85
2023/05/01 11:42:11;;;;;;;4.97;1.65;;;;;;;;;;6186198;23;20016;-86
2023/05/01 11:45:09;;;;;;;3.63;1.38;;;;;;;;;;6163669;23;20103;-86
2023/05/01 11:47:55;;;;;;;4.60;1.55;;;;;;;;;;6185574;23;20012;-85
2023/05/01 11:50:39;;;;;;;3.90;1.58;;;;;;;;;;6163561;23;20020;-86
2023/05/01 11:53:24;;;;;;;4.30;1.58;;;;;;;;;;6185485;23;20454;-86
2023/05/01 11:56:19;;;;;;;4.45;1.60;;;;;;;;;;6185149;23;20043;-86
2023/05/01 11:59:17;;;;;;;3.28;1.48;;;;;;;;;;6184921;23;20108;-86
2023/05/01 12:02:02;;;;;;;3.00;1.25;;;;;;;;;;6184934;23;20016;-86
2023/05/01 12:04:46;;;;;;;3.72;1.30;;;;;;;;;;6162244;23;20068;-86
2023/05/01 12:07:32;;;;;;;3.78;1.60;;;;;;;;;;6185232;23;20020;-86
2023/05/01 12:10:18;;;;;;;3.67;1.50;;;;;;;;;;6186104;23;20020;-85
2023/05/01 12:13:03;;;;;;;5.32;1.52;;;;;;;;;;6163803;23;20015;-86
2023/05/01 12:15:49;;;;;;;3.05;1.55;;;;;;;;;;6185585;23;20083;-86
2023/05/01 12:18:33;;;;;;;4.00;1.50;;;;;;;;;;6185862;23;20537;-86
2023/05/01 12:21:18;;;;;;;3.95;1.38;;;;;;;;;;6185887;23;20020;-86
2023/05/01 12:24:09;;;;;;;5.30;1.10;;;;;;;;;;6185656;23;20118;-86
2023/05/01 12:26:59;;;;;;;2.83;1.10;;;;;;;;;;6163256;23;20477;-86
2023/05/01 12:29:46;;;;;;;4.57;1.88;;;;;;;;;;6185551;23;20066;-86
2023/05/01 12:32:32;;;;;;;3.17;1.20;;;;;;;;;;6185835;23;20071;-86
2023/05/01 12:35:16;;;;;;;3.10;1.40;;;;;;;;;;6185718;23;20059;-85
2023/05/01 12:38:10;;;;;;;4.43;1.70;;;;;;;;;;6185251;23;20023;-86
2023/05/01 12:40:55;;;;;;;4.03;1.52;;;;;;;;;;6185230;23;20016;-86
2023/05/01 12:43:40;;;;;;;5.75;1.60;;;;;;;;;;6163545;23;20158;-86
2023/05/01 12:46:24;;;;;;;4.88;1.50;;;;;;;;;;6163277;23;20020;-86
2023/05/01 12:49:09;;;;;;;5.63;2.03;;;;;;;;;;6185592;23;20047;-86
2023/05/01 12:51:55;;;;;;;5.07;1.63;;;;;;;;;;6185291;23;20109;-87
2023/05/01 12:54:44;;;;;;;3.95;1.50;;;;;;;;;;6185740;23;20063;-86
2023/05/01 12:57:29;;;;;;;4.90;1.50;;;;;;;;;;6185570;23;20060;-85
2023/05/01 13:00:14;;;;;;;2.35;1.15;;;;;;;;;;6163566;23;20023;-86
2023/05/01 13:03:02;;;;;;;3.88;1.25;;;19.50;63.90;;;;;;6162797;23;20020;-86
2023/05/01 13:06:00;;;;;;;4.32;1.30;;;;;;;;;;6162881;23;20016;-86
2023/05/01 13:08:45;;;;;;;2.50;1.40;;;;;;;;;;6162929;23;20376;-86
2023/05/01 13:11:30;;;;;;;5.28;1.70;;;;;;;;;;6184224;23;20020;-87
2023/05/01 13:14:15;;;;;;;3.85;1.83;;;;;;;;;;6185374;23;20084;-87
2023/05/01 13:17:00;;;;;;;3.70;1.67;;;;;;;;;;6162559;23;20060;-86
2023/05/01 13:19:44;;;;;;;4.18;1.50;;;;;;;;;;6185228;23;20019;-88
2023/05/01 13:22:32;;;;;;;5.40;1.75;;;;;;;;;;6185349;23;20101;-89
2023/05/01 13:25:19;;;;;;;5.10;1.60;;;;;;;;;;6185326;23;20051;-86
2023/05/01 13:28:04;;;;;;;5.05;1.70;;;;;;;;;;6184852;23;20508;-85
2023/05/01 13:30:48;;;;;;;4.30;1.63;;;;;;;;;;6184838;23;20015;-86
2023/05/01 13:33:33;;;;;;;3.65;1.70;;;;;;;;;;6184784;23;20068;-85
2023/05/01 13:36:17;;;;;;;4.07;1.95;;;;;;;;;;6185304;23;20093;-85
2023/05/01 13:39:02;;;;;;;3.20;2.13;;;;;;;;;;6184345;23;20055;-85
2023/05/01 13:41:47;;;;;;;6.32;2.58;;;;;;;;;;6162361;23;20099;-85
2023/05/01 13:44:32;;;;;;;4.55;1.60;;;;;;;;;;6185022;23;20063;-86
2023/05/01 13:47:17;;;;;;;4.40;1.60;;;;;;;;;;6185059;23;20012;-87
2023/05/01 13:50:02;;;;;;;3.95;1.60;;;;;;;;;;6184530;23;20015;-88
2023/05/01 13:52:47;;;;;;;5.30;1.75;;;;;;;;;;6142008;23;20020;-88
2023/05/01 13:55:32;;;;;;;4.47;1.70;;;;;;;;;;6185107;23;20454;-88
2023/05/01 13:58:17;;;;;;;3.90;2.08;;;;;;;;;;6185078;23;20020;-90
2023/05/01 14:01:05;;;;;;;4.53;1.75;;;;;;;;;;6162235;23;20020;-87
2023/05/01 14:03:50;;;;;;;5.65;1.80;;;;;;;;;;6185098;23;20016;-87
2023/05/01 14:06:37;;;;;;;3.92;1.50;;;;;;;;;;6162823;23;20019;-87
2023/05/01 14:09:22;;;;;;;4.78;1.88;;;;;;;;;;6184919;23;20020;-90
2023/05/01 14:12:06;;;;;;;7.22;2.50;;;;;;;;;;6162271;23;20032;-88
2023/05/01 14:14:52;;;;;;;8.45;2.92;;;;;;;;;;6184855;23;20015;-88
2023/05/01 14:17:36;;;;;;;4.70;2.40;;;;;;;;;;6184775;23;20023;-88
2023/05/01 14:20:24;;;;;;;9.15;2.47;;;;;;;;;;6184746;23;20040;-86
2023/05/01 14:23:09;;;;;;;6.22;2.40;;;;;;;;;;6161998;23;20125;-87
2023/05/01 14:25:54;;;;;;;6.43;3.00;;;;;;;;;;6184574;23;20020;-87
2023/05/01 14:28:42;;;;;;;6.90;2.83;;;;;;;;;;6184747;23;20019;-87
2023/05/01 14:31:28;;;;;;;5.65;2.50;;;;;;;;;;6184553;23;20043;-86
2023/05/01 14:34:13;;;;;;;6.28;3.20;;;;;;;;;;6184730;23;20020;-87
2023/05/01 14:36:58;;;;;;;7.80;3.40;;;;;;;;;;6161856;23;20019;-87
2023/05/01 14:39:43;;;;;;;10.38;3.35;;;;;;;;;;6184749;23;20395;-87
2023/05/01 14:42:27;;;;;;;5.60;2.80;;;;;;;;;;6162446;23;20487;-87
2023/05/01 14:45:16;;;;;;;5.63;2.90;;;;;;;;;;6161798;23;20020;-87
2023/05/01 14:48:01;;;;;;;7.80;3.47;;;;;;;;;;6161594;23;20060;-87
2023/05/01 14:50:45;;;;;;;8.05;2.95;;;;;;;;;;6161903;23;20341;-86
2023/05/01 14:53:33;;;;;;;7.03;2.88;;;;;;;;;;6184611;23;20015;-87
2023/05/01 14:56:17;;;;;;;8.55;2.53;;;;;;;;;;6183982;23;20089;-87
2023/05/01 14:59:03;;;;;;;7.43;3.03;;;;;;;;;;6183951;23;20020;-87
2023/05/01 15:01:48;;;;;;;4.10;2.65;;;;;;;;;;6162678;23;20599;-86
2023/05/01 15:04:32;;;;;;;5.47;2.70;;;;;;;;;;6183822;23;20062;-87
2023/05/01 15:07:17;;;;;;;9.07;3.10;;;;;;;;;;6161713;23;20016;-87
2023/05/01 15:10:02;;;;;;;8.32;3.35;;;;;;;;;;6181498;23;20020;-87
2023/05/01 15:12:47;;;;;;;6.82;2.47;;;;;;;;;;6184536;23;20068;-87
2023/05/01 15:15:31;;;;;;;8.05;2.92;;;;;;;;;;6184470;23;20047;-86
2023/05/01 15:18:16;;;;;;;6.63;2.90;;;;;;;;;;6161573;23;20048;-87
2023/05/01 15:21:01;;;;;;;5.63;3.03;;;;;;;;;;6141423;23;20388;-86
2023/05/01 15:23:46;;;;;;;7.40;2.75;;;;;;;;;;6162228;23;20044;-87
2023/05/01 15:26:30;;;;;;;12.32;3.33;;;;;;;;;;6162135;23;20048;-87
2023/05/01 15:29:16;;;;;;;7.57;2.72;;;;;;;;;;6183732;23;20020;-86
2023/05/01 15:32:01;;;;;;;7.80;3.08;;;;;;;;;;6183965;23;20185;-87
2023/05/01 15:34:46;;;;;;;7.05;2.60;;;;;;;;;;6162174;23;20451;-87
2023/05/01 15:37:31;;;;;;;5.53;3.20;;;;;;;;;;6182397;23;20016;-87
2023/05/01 15:40:16;;;;;;;8.18;3.08;;;;;;;;;;6181615;23;20067;-87
2023/05/01 15:43:01;;;;;;;7.13;2.60;;;;;;;;;;6182173;23;20031;-87
2023/05/01 15:45:45;;;;;;;4.78;2.90;;;;;;;;;;6182455;23;20506;-87
2023/05/01 15:48:31;;;;;;;6.32;2.90;;;;;;;;;;6181826;23;20347;-87
2023/05/01 15:51:16;;;;;;;5.75;3.00;;;;;;;;;;6183894;23;20020;-86
2023/05/01 15:54:01;;;;;;;9.05;3.28;;;;;;;;;;6184271;23;20484;-87
2023/05/01 15:56:46;;;;;;;4.60;2.60;;;;;;;;;;6161926;23;20075;-87
2023/05/01 15:59:31;;;;;;;7.88;2.90;;;;;;;;;;6183920;23;20096;-87
2023/05/01 16:02:15;;;;;;;7.15;2.90;;;;;;;;;;6161153;23;20023;-87
2023/05/01 16:05:00;;;;;;;5.75;3.33;;;;;;;;;;6184495;23;20059;-86
2023/05/01 16:07:45;;;;;;;8.13;4.45;;;;;;;;;;6184119;23;20498;-87
2023/05/01 16:10:35;;;;;;;7.53;4.50;;;;;;;;;;6184071;23;20020;-88
2023/05/01 16:13:20;;;;;;;8.38;4.45;;;;;;;;;;6161336;23;20016;-88
2023/05/01 16:16:09;;;;;;;8.05;4.50;;;;;;;;;;6184368;23;20031;-88
2023/05/01 16:18:54;;;;;;;7.18;4.10;;;;;;;;;;6161689;23;20063;-88
2023/05/01 16:21:39;;;;;;;8.00;4.90;;;;;;;;;;6161790;23;20016;-87
2023/05/01 16:24:24;;;;;;;9.50;5.35;;;;;;;;;;6163147;23;20337;-88
2023/05/01 16:27:12;;;;;;;10.57;5.30;;;;;;;;;;6185578;23;20077;-87
2023/05/01 16:29:56;;;;;;;9.00;5.10;;;;;;;;;;6163292;23;20437;-88
2023/05/01 16:32:41;;;;;;;10.18;5.03;;;;;;;;;;6185717;23;20055;-88